MDT,Max TemperatureF,Mean TemperatureF,Min TemperatureF,Max Dew PointF,MeanDew PointF,Min DewpointF,Max Humidity, Mean Humidity, Min Humidity, Max Sea Level PressureIn, Mean Sea Level PressureIn, Min Sea Level PressureIn, Max VisibilityMiles, Mean VisibilityMiles, Min VisibilityMiles, Max Wind SpeedMPH, Mean Wind SpeedMPH, Max Gust SpeedMPH,PrecipitationIn, CloudCover, Events, WindDirDegrees
2013-5-1,50,35,19,22,16,10,88,55,21,30.61,30.52,30.37,10,10,10,15,6,21,0.00,3,,310
2013-5-2,62,44,26,26,21,18,72,46,20,30.63,30.48,30.29,10,10,10,15,9,26,0.00,0,,137
2013-5-3,66,51,36,31,24,20,52,36,19,30.27,30.18,30.13,10,10,10,18,9,21,0.00,4,,124
2013-5-4,67,54,41,26,24,22,49,35,20,30.30,30.26,30.20,10,10,10,16,9,22,0.00,5,,91
2013-5-5,68,52,35,27,25,21,59,40,20,30.28,30.19,30.08,10,10,10,16,8,21,0.00,0,,126
2013-5-6,74,56,38,29,27,24,59,38,17,30.08,30.00,29.89,10,10,10,17,10,23,0.00,0,,128
2013-5-7,81,63,45,38,32,27,54,35,16,29.96,29.86,29.81,10,10,10,35,14,43,0.00,0,,85
2013-5-8,68,57,46,36,32,25,65,45,24,30.19,30.14,29.97,10,10,10,30,12,37,0.00,0,,64
2013-5-9,69,57,44,28,25,21,45,33,20,30.24,30.17,30.10,10,10,10,20,11,24,0.00,1,,103
2013-5-10,64,53,41,39,27,21,62,43,23,30.42,30.25,30.05,10,10,2,30,14,36,0.00,3,,10
2013-5-11,68,49,29,26,23,21,75,48,20,30.48,30.30,30.11,10,10,10,18,11,24,0.00,0,,119
2013-5-12,86,64,41,44,33,19,43,32,21,30.12,29.90,29.73,10,10,10,21,10,28,0.00,0,,173
2013-5-13,91,74,56,57,47,41,57,38,18,29.84,29.70,29.54,10,10,3,37,13,46,0.10,2,Rain-Thunderstorm,293
2013-5-14,73,63,52,56,36,29,93,59,24,29.89,29.81,29.65,10,10,10,36,16,46,0.00,0,,286
2013-5-15,72,57,42,39,32,25,82,50,17,29.99,29.92,29.86,10,10,10,21,8,28,0.00,0,,288
2013-5-16,74,61,48,54,40,29,86,53,20,29.86,29.83,29.80,10,10,6,17,7,22,0.05,6,Rain,120
2013-5-17,72,62,52,53,51,48,100,72,44,29.89,29.84,29.80,10,9,5,17,7,22,0.01,7,Rain,86
2013-5-18,65,60,54,57,54,49,93,79,64,29.89,29.86,29.83,10,8,3,17,6,23,0.20,7,Rain-Thunderstorm,20
2013-5-19,69,62,54,54,50,41,93,67,40,30.01,29.93,29.88,10,8,3,23,11,29,T,7,,35
2013-5-20,66,58,49,44,40,35,74,54,34,30.07,30.04,29.99,10,10,10,23,12,40,T,2,,354
2013-5-21,72,58,44,36,30,18,65,40,14,30.09,30.03,29.96,10,10,10,23,12,30,0.00,2,,69
2013-5-22,72,62,52,42,32,20,68,42,15,30.10,30.04,30.01,10,10,10,35,18,43,0.00,3,,113
2013-5-23,72,61,49,43,39,34,71,50,28,30.10,29.98,29.83,10,10,10,41,27,49,0.00,3,,115
2013-5-24,70,61,51,50,42,33,89,58,26,29.96,29.85,29.75,10,10,7,30,13,40,0.03,5,Rain-Thunderstorm,184
2013-5-25,80,64,48,57,49,38,87,61,35,29.95,29.87,29.77,10,8,0,32,13,43,1.53,5,Fog-Rain-Thunderstorm,94
2013-5-26,77,63,48,57,53,49,100,70,40,29.95,29.89,29.80,10,9,2,28,8,36,0.37,4,Rain-Thunderstorm,69
2013-5-27,70,61,52,55,53,46,93,75,57,29.82,29.75,29.66,10,10,10,22,6,28,0.01,6,Rain-Thunderstorm,250
2013-5-28,68,58,47,55,52,46,100,80,59,29.71,29.68,29.66,10,7,0,13,5,26,0.13,4,Fog-Rain-Thunderstorm,336
2013-5-29,67,58,48,58,53,48,100,79,58,29.71,29.66,29.61,10,8,1,22,8,25,0.29,5,Rain,70
2013-5-30,57,54,51,54,51,48,100,89,77,29.65,29.63,29.59,10,6,2,24,16,29,1.25,7,Rain,16
2013-5-31,65,57,48,50,47,40,93,69,44,30.13,29.81,29.62,10,9,4,28,15,35,0.43,6,Rain,2